sensor_id;sensor_type;location;lat;lon;timestamp;P1;durP1;ratioP1;P2;durP2;ratioP2
66542;SDS011;53395;37.360;-122.046;2023-06-10T00:00:51;3.60;;;0.90;;
66542;SDS011;53395;37.360;-122.046;2023-06-10T00:03:35;3.08;;;0.90;;
66542;SDS011;53395;37.360;-122.046;2023-06-10T00:06:20;2.85;;;0.93;;
66542;SDS011;53395;37.360;-122.046;2023-06-10T00:09:07;2.38;;;0.70;;
66542;SDS011;53395;37.360;-122.046;2023-06-10T00:11:54;2.78;;;0.73;;
66542;SDS011;53395;37.360;-122.046;2023-06-10T00:14:39;2.45;;;0.73;;
66542;SDS011;53395;37.360;-122.046;2023-06-10T00:17:24;2.70;;;0.80;;
66542;SDS011;53395;37.360;-122.046;2023-06-10T00:20:09;1.83;;;0.73;;
66542;SDS011;53395;37.360;-122.046;2023-06-10T00:23:00;3.13;;;0.90;;
66542;SDS011;53395;37.360;-122.046;2023-06-10T00:25:45;2.75;;;1.08;;
66542;SDS011;53395;37.360;-122.046;2023-06-10T00:28:30;2.65;;;0.75;;
66542;SDS011;53395;37.360;-122.046;2023-06-10T00:31:14;3.05;;;0.77;;
66542;SDS011;53395;37.360;-122.046;2023-06-10T00:33:59;4.43;;;1.77;;
66542;SDS011;53395;37.360;-122.046;2023-06-10T00:36:43;2.42;;;0.88;;
66542;SDS011;53395;37.360;-122.046;2023-06-10T00:39:27;3.17;;;1.00;;
66542;SDS011;53395;37.360;-122.046;2023-06-10T00:42:12;4.93;;;1.70;;
66542;SDS011;53395;37.360;-122.046;2023-06-10T00:44:56;10.75;;;3.00;;
66542;SDS011;53395;37.360;-122.046;2023-06-10T00:47:41;3.55;;;1.27;;
66542;SDS011;53395;37.360;-122.046;2023-06-10T00:50:26;4.50;;;1.35;;
66542;SDS011;53395;37.360;-122.046;2023-06-10T00:53:10;2.20;;;0.77;;
66542;SDS011;53395;37.360;-122.046;2023-06-10T00:55:55;3.75;;;1.00;;
66542;SDS011;53395;37.360;-122.046;2023-06-10T00:58:39;3.35;;;0.93;;
66542;SDS011;53395;37.360;-122.046;2023-06-10T01:01:24;4.25;;;1.10;;
66542;SDS011;53395;37.360;-122.046;2023-06-10T01:04:09;3.22;;;0.80;;
66542;SDS011;53395;37.360;-122.046;2023-06-10T01:07:02;1.77;;;0.63;;
66542;SDS011;53395;37.360;-122.046;2023-06-10T01:10:01;3.25;;;0.77;;
66542;SDS011;53395;37.360;-122.046;2023-06-10T01:12:49;2.67;;;0.55;;
66542;SDS011;53395;37.360;-122.046;2023-06-10T01:15:36;2.03;;;0.70;;
66542;SDS011;53395;37.360;-122.046;2023-06-10T01:18:21;3.15;;;0.90;;
66542;SDS011;53395;37.360;-122.046;2023-06-10T01:21:06;1.77;;;0.60;;
66542;SDS011;53395;37.360;-122.046;2023-06-10T01:23:52;2.78;;;1.00;;
66542;SDS011;53395;37.360;-122.046;2023-06-10T01:26:39;3.20;;;0.90;;
66542;SDS011;53395;37.360;-122.046;2023-06-10T01:29:33;2.47;;;0.75;;
66542;SDS011;53395;37.360;-122.046;2023-06-10T01:32:23;1.85;;;0.70;;
66542;SDS011;53395;37.360;-122.046;2023-06-10T01:35:11;3.78;;;0.90;;
66542;SDS011;53395;37.360;-122.046;2023-06-10T01:37:57;5.28;;;0.88;;
66542;SDS011;53395;37.360;-122.046;2023-06-10T01:40:42;2.60;;;0.90;;
66542;SDS011;53395;37.360;-122.046;2023-06-10T01:43:27;2.33;;;0.98;;
66542;SDS011;53395;37.360;-122.046;2023-06-10T01:46:12;2.17;;;0.80;;
66542;SDS011;53395;37.360;-122.046;2023-06-10T01:48:56;3.28;;;0.98;;
66542;SDS011;53395;37.360;-122.046;2023-06-10T01:51:41;2.35;;;0.80;;
66542;SDS011;53395;37.360;-122.046;2023-06-10T01:54:25;6.72;;;0.93;;
66542;SDS011;53395;37.360;-122.046;2023-06-10T01:57:10;4.20;;;0.80;;
66542;SDS011;53395;37.360;-122.046;2023-06-10T01:59:55;3.72;;;0.90;;
66542;SDS011;53395;37.360;-122.046;2023-06-10T02:02:39;3.20;;;0.70;;
66542;SDS011;53395;37.360;-122.046;2023-06-10T02:05:24;2.00;;;0.85;;
66542;SDS011;53395;37.360;-122.046;2023-06-10T02:08:08;2.35;;;0.80;;
66542;SDS011;53395;37.360;-122.046;2023-06-10T02:10:53;3.28;;;0.80;;
66542;SDS011;53395;37.360;-122.046;2023-06-10T02:13:38;2.85;;;1.00;;
66542;SDS011;53395;37.360;-122.046;2023-06-10T02:16:22;3.90;;;1.15;;
66542;SDS011;53395;37.360;-122.046;2023-06-10T02:19:07;2.60;;;0.60;;
66542;SDS011;53395;37.360;-122.046;2023-06-10T02:21:52;3.55;;;0.80;;
66542;SDS011;53395;37.360;-122.046;2023-06-10T02:24:36;4.15;;;0.70;;
66542;SDS011;53395;37.360;-122.046;2023-06-10T02:27:24;1.88;;;0.70;;
66542;SDS011;53395;37.360;-122.046;2023-06-10T02:30:08;2.65;;;0.70;;
66542;SDS011;53395;37.360;-122.046;2023-06-10T02:32:54;3.03;;;0.60;;
66542;SDS011;53395;37.360;-122.046;2023-06-10T02:35:40;2.53;;;0.65;;
66542;SDS011;53395;37.360;-122.046;2023-06-10T02:38:25;3.38;;;0.60;;
66542;SDS011;53395;37.360;-122.046;2023-06-10T02:41:09;7.65;;;0.88;;
66542;SDS011;53395;37.360;-122.046;2023-06-10T02:43:54;1.85;;;0.70;;
66542;SDS011;53395;37.360;-122.046;2023-06-10T02:46:38;1.42;;;0.50;;
66542;SDS011;53395;37.360;-122.046;2023-06-10T02:49:23;1.10;;;0.43;;
66542;SDS011;53395;37.360;-122.046;2023-06-10T02:52:08;3.83;;;1.10;;
66542;SDS011;53395;37.360;-122.046;2023-06-10T02:54:52;3.10;;;0.80;;
66542;SDS011;53395;37.360;-122.046;2023-06-10T02:57:36;2.97;;;0.95;;
66542;SDS011;53395;37.360;-122.046;2023-06-10T03:00:21;2.00;;;0.70;;
66542;SDS011;53395;37.360;-122.046;2023-06-10T03:03:06;3.22;;;0.60;;
66542;SDS011;53395;37.360;-122.046;2023-06-10T03:05:50;2.25;;;0.70;;
66542;SDS011;53395;37.360;-122.046;2023-06-10T03:08:35;2.63;;;0.50;;
66542;SDS011;53395;37.360;-122.046;2023-06-10T03:11:19;2.92;;;0.63;;
66542;SDS011;53395;37.360;-122.046;2023-06-10T03:14:04;2.92;;;0.80;;
66542;SDS011;53395;37.360;-122.046;2023-06-10T03:16:48;2.05;;;0.60;;
66542;SDS011;53395;37.360;-122.046;2023-06-10T03:19:34;2.97;;;0.60;;
66542;SDS011;53395;37.360;-122.046;2023-06-10T03:22:18;2.45;;;0.60;;
66542;SDS011;53395;37.360;-122.046;2023-06-10T03:27:48;1.70;;;0.50;;
66542;SDS011;53395;37.360;-122.046;2023-06-10T03:30:32;3.70;;;0.75;;
66542;SDS011;53395;37.360;-122.046;2023-06-10T03:33:17;2.55;;;0.63;;
66542;SDS011;53395;37.360;-122.046;2023-06-10T03:36:01;2.08;;;0.63;;
66542;SDS011;53395;37.360;-122.046;2023-06-10T03:38:46;3.30;;;0.70;;
66542;SDS011;53395;37.360;-122.046;2023-06-10T03:41:30;2.40;;;0.70;;
66542;SDS011;53395;37.360;-122.046;2023-06-10T03:44:16;4.43;;;0.77;;
66542;SDS011;53395;37.360;-122.046;2023-06-10T03:47:00;2.10;;;0.55;;
66542;SDS011;53395;37.360;-122.046;2023-06-10T03:49:45;0.98;;;0.45;;
66542;SDS011;53395;37.360;-122.046;2023-06-10T03:52:29;1.63;;;0.73;;
66542;SDS011;53395;37.360;-122.046;2023-06-10T03:55:13;2.53;;;0.70;;
66542;SDS011;53395;37.360;-122.046;2023-06-10T03:57:58;2.40;;;0.80;;
66542;SDS011;53395;37.360;-122.046;2023-06-10T04:00:42;2.13;;;0.68;;
66542;SDS011;53395;37.360;-122.046;2023-06-10T04:03:27;3.00;;;0.60;;
66542;SDS011;53395;37.360;-122.046;2023-06-10T04:06:12;1.45;;;0.50;;
66542;SDS011;53395;37.360;-122.046;2023-06-10T04:08:57;1.73;;;0.55;;
66542;SDS011;53395;37.360;-122.046;2023-06-10T04:11:41;2.00;;;0.57;;
66542;SDS011;53395;37.360;-122.046;2023-06-10T04:14:26;1.33;;;0.50;;
66542;SDS011;53395;37.360;-122.046;2023-06-10T04:17:10;2.90;;;0.60;;
66542;SDS011;53395;37.360;-122.046;2023-06-10T04:19:55;2.17;;;0.52;;
66542;SDS011;53395;37.360;-122.046;2023-06-10T04:22:40;2.60;;;0.60;;
66542;SDS011;53395;37.360;-122.046;2023-06-10T04:25:25;2.15;;;0.52;;
66542;SDS011;53395;37.360;-122.046;2023-06-10T04:28:10;2.50;;;0.50;;
66542;SDS011;53395;37.360;-122.046;2023-06-10T04:30:54;1.75;;;0.50;;
66542;SDS011;53395;37.360;-122.046;2023-06-10T04:33:39;1.15;;;0.60;;
66542;SDS011;53395;37.360;-122.046;2023-06-10T04:36:24;2.63;;;0.60;;
66542;SDS011;53395;37.360;-122.046;2023-06-10T04:39:08;2.58;;;0.68;;
66542;SDS011;53395;37.360;-122.046;2023-06-10T04:41:53;1.27;;;0.50;;
66542;SDS011;53395;37.360;-122.046;2023-06-10T04:44:37;3.92;;;0.57;;
66542;SDS011;53395;37.360;-122.046;2023-06-10T04:47:22;1.63;;;0.43;;
66542;SDS011;53395;37.360;-122.046;2023-06-10T04:50:07;3.47;;;0.65;;
66542;SDS011;53395;37.360;-122.046;2023-06-10T04:52:51;1.38;;;0.43;;
66542;SDS011;53395;37.360;-122.046;2023-06-10T04:55:36;1.17;;;0.50;;
66542;SDS011;53395;37.360;-122.046;2023-06-10T04:58:20;1.85;;;0.55;;
66542;SDS011;53395;37.360;-122.046;2023-06-10T05:01:04;2.08;;;0.60;;
66542;SDS011;53395;37.360;-122.046;2023-06-10T05:03:49;2.03;;;0.60;;
66542;SDS011;53395;37.360;-122.046;2023-06-10T05:06:33;1.27;;;0.43;;
66542;SDS011;53395;37.360;-122.046;2023-06-10T05:09:20;3.47;;;0.70;;
66542;SDS011;53395;37.360;-122.046;2023-06-10T05:12:05;3.33;;;0.70;;
66542;SDS011;53395;37.360;-122.046;2023-06-10T05:14:50;0.93;;;0.40;;
66542;SDS011;53395;37.360;-122.046;2023-06-10T05:17:34;2.35;;;0.57;;
66542;SDS011;53395;37.360;-122.046;2023-06-10T05:20:19;1.77;;;0.40;;
66542;SDS011;53395;37.360;-122.046;2023-06-10T05:23:04;1.02;;;0.40;;
66542;SDS011;53395;37.360;-122.046;2023-06-10T05:25:49;2.50;;;0.55;;
66542;SDS011;53395;37.360;-122.046;2023-06-10T05:28:33;1.30;;;0.38;;
66542;SDS011;53395;37.360;-122.046;2023-06-10T05:31:18;1.30;;;0.40;;
66542;SDS011;53395;37.360;-122.046;2023-06-10T05:34:02;1.25;;;0.50;;
66542;SDS011;53395;37.360;-122.046;2023-06-10T05:36:47;2.75;;;0.55;;
66542;SDS011;53395;37.360;-122.046;2023-06-10T05:39:31;1.92;;;0.55;;
66542;SDS011;53395;37.360;-122.046;2023-06-10T05:42:16;1.13;;;0.40;;
66542;SDS011;53395;37.360;-122.046;2023-06-10T05:45:00;0.85;;;0.40;;
66542;SDS011;53395;37.360;-122.046;2023-06-10T05:47:45;0.82;;;0.32;;
66542;SDS011;53395;37.360;-122.046;2023-06-10T05:50:29;1.42;;;0.38;;
66542;SDS011;53395;37.360;-122.046;2023-06-10T05:53:14;2.30;;;0.40;;
66542;SDS011;53395;37.360;-122.046;2023-06-10T05:55:58;2.13;;;0.40;;
66542;SDS011;53395;37.360;-122.046;2023-06-10T05:58:43;0.57;;;0.40;;
66542;SDS011;53395;37.360;-122.046;2023-06-10T06:01:28;1.17;;;0.50;;
66542;SDS011;53395;37.360;-122.046;2023-06-10T06:04:12;1.27;;;0.50;;
66542;SDS011;53395;37.360;-122.046;2023-06-10T06:06:57;1.10;;;0.40;;
66542;SDS011;53395;37.360;-122.046;2023-06-10T06:09:41;1.23;;;0.50;;
66542;SDS011;53395;37.360;-122.046;2023-06-10T06:12:26;3.05;;;0.70;;
66542;SDS011;53395;37.360;-122.046;2023-06-10T06:15:11;1.88;;;0.40;;
66542;SDS011;53395;37.360;-122.046;2023-06-10T06:17:55;2.28;;;0.47;;
66542;SDS011;53395;37.360;-122.046;2023-06-10T06:20:39;1.13;;;0.45;;
66542;SDS011;53395;37.360;-122.046;2023-06-10T06:23:24;1.95;;;0.40;;
66542;SDS011;53395;37.360;-122.046;2023-06-10T06:26:09;1.05;;;0.47;;
66542;SDS011;53395;37.360;-122.046;2023-06-10T06:28:53;1.73;;;0.40;;
66542;SDS011;53395;37.360;-122.046;2023-06-10T06:31:38;1.20;;;0.40;;
66542;SDS011;53395;37.360;-122.046;2023-06-10T06:34:22;0.20;;;0.20;;
66542;SDS011;53395;37.360;-122.046;2023-06-10T06:37:07;0.98;;;0.40;;
66542;SDS011;53395;37.360;-122.046;2023-06-10T06:39:51;0.73;;;0.40;;
66542;SDS011;53395;37.360;-122.046;2023-06-10T06:42:36;1.17;;;0.40;;
66542;SDS011;53395;37.360;-122.046;2023-06-10T06:45:21;2.28;;;0.40;;
66542;SDS011;53395;37.360;-122.046;2023-06-10T06:48:05;0.45;;;0.30;;
66542;SDS011;53395;37.360;-122.046;2023-06-10T06:50:50;1.20;;;0.43;;
66542;SDS011;53395;37.360;-122.046;2023-06-10T06:53:34;0.80;;;0.38;;
66542;SDS011;53395;37.360;-122.046;2023-06-10T06:56:19;1.00;;;0.30;;
66542;SDS011;53395;37.360;-122.046;2023-06-10T07:01:49;2.30;;;0.60;;
66542;SDS011;53395;37.360;-122.046;2023-06-10T07:04:34;0.82;;;0.30;;
66542;SDS011;53395;37.360;-122.046;2023-06-10T07:07:18;1.40;;;0.30;;
66542;SDS011;53395;37.360;-122.046;2023-06-10T07:10:03;2.20;;;0.50;;
66542;SDS011;53395;37.360;-122.046;2023-06-10T07:12:47;0.80;;;0.30;;
66542;SDS011;53395;37.360;-122.046;2023-06-10T07:15:32;1.98;;;0.30;;
66542;SDS011;53395;37.360;-122.046;2023-06-10T07:18:17;0.82;;;0.30;;
66542;SDS011;53395;37.360;-122.046;2023-06-10T07:21:01;2.47;;;0.43;;
66542;SDS011;53395;37.360;-122.046;2023-06-10T07:23:46;2.25;;;0.30;;
66542;SDS011;53395;37.360;-122.046;2023-06-10T07:26:30;1.50;;;0.43;;
66542;SDS011;53395;37.360;-122.046;2023-06-10T07:29:15;1.13;;;0.40;;
66542;SDS011;53395;37.360;-122.046;2023-06-10T07:31:59;1.63;;;0.55;;
66542;SDS011;53395;37.360;-122.046;2023-06-10T07:34:44;1.10;;;0.50;;
66542;SDS011;53395;37.360;-122.046;2023-06-10T07:37:28;1.42;;;0.40;;
66542;SDS011;53395;37.360;-122.046;2023-06-10T07:40:13;10.43;;;0.65;;
66542;SDS011;53395;37.360;-122.046;2023-06-10T07:43:00;1.98;;;0.43;;
66542;SDS011;53395;37.360;-122.046;2023-06-10T07:45:45;2.55;;;0.47;;
66542;SDS011;53395;37.360;-122.046;2023-06-10T07:48:29;1.60;;;0.60;;
66542;SDS011;53395;37.360;-122.046;2023-06-10T07:51:17;1.85;;;0.45;;
66542;SDS011;53395;37.360;-122.046;2023-06-10T07:54:01;2.60;;;0.40;;
66542;SDS011;53395;37.360;-122.046;2023-06-10T07:56:46;2.10;;;0.50;;
66542;SDS011;53395;37.360;-122.046;2023-06-10T07:59:31;2.85;;;0.40;;
66542;SDS011;53395;37.360;-122.046;2023-06-10T08:02:15;2.10;;;0.70;;
66542;SDS011;53395;37.360;-122.046;2023-06-10T08:05:00;2.00;;;0.50;;
66542;SDS011;53395;37.360;-122.046;2023-06-10T08:07:44;1.48;;;0.40;;
66542;SDS011;53395;37.360;-122.046;2023-06-10T08:10:29;2.08;;;0.65;;
66542;SDS011;53395;37.360;-122.046;2023-06-10T08:13:13;2.28;;;0.55;;
66542;SDS011;53395;37.360;-122.046;2023-06-10T08:15:58;1.02;;;0.43;;
66542;SDS011;53395;37.360;-122.046;2023-06-10T08:18:42;1.15;;;0.40;;
66542;SDS011;53395;37.360;-122.046;2023-06-10T08:21:27;1.88;;;0.50;;
66542;SDS011;53395;37.360;-122.046;2023-06-10T08:24:12;1.90;;;0.70;;
66542;SDS011;53395;37.360;-122.046;2023-06-10T08:26:59;2.67;;;0.50;;
66542;SDS011;53395;37.360;-122.046;2023-06-10T08:29:43;3.17;;;0.60;;
66542;SDS011;53395;37.360;-122.046;2023-06-10T08:32:28;1.58;;;0.60;;
66542;SDS011;53395;37.360;-122.046;2023-06-10T08:35:12;2.58;;;0.73;;
66542;SDS011;53395;37.360;-122.046;2023-06-10T08:37:57;3.33;;;0.63;;
66542;SDS011;53395;37.360;-122.046;2023-06-10T08:40:41;2.78;;;0.85;;
66542;SDS011;53395;37.360;-122.046;2023-06-10T08:43:33;3.28;;;0.70;;
66542;SDS011;53395;37.360;-122.046;2023-06-10T08:46:18;2.50;;;0.90;;
66542;SDS011;53395;37.360;-122.046;2023-06-10T08:49:03;2.95;;;1.15;;
66542;SDS011;53395;37.360;-122.046;2023-06-10T08:51:50;3.35;;;0.80;;
66542;SDS011;53395;37.360;-122.046;2023-06-10T08:54:35;2.90;;;1.27;;
66542;SDS011;53395;37.360;-122.046;2023-06-10T08:57:22;4.22;;;1.38;;
66542;SDS011;53395;37.360;-122.046;2023-06-10T09:00:06;2.15;;;0.73;;
66542;SDS011;53395;37.360;-122.046;2023-06-10T09:02:51;2.65;;;0.80;;
66542;SDS011;53395;37.360;-122.046;2023-06-10T09:05:36;2.78;;;0.80;;
66542;SDS011;53395;37.360;-122.046;2023-06-10T09:08:21;3.38;;;0.80;;
66542;SDS011;53395;37.360;-122.046;2023-06-10T09:11:05;2.22;;;0.60;;
66542;SDS011;53395;37.360;-122.046;2023-06-10T09:13:50;3.70;;;0.60;;
66542;SDS011;53395;37.360;-122.046;2023-06-10T09:16:35;1.25;;;0.50;;
66542;SDS011;53395;37.360;-122.046;2023-06-10T09:19:19;3.10;;;0.65;;
66542;SDS011;53395;37.360;-122.046;2023-06-10T09:22:05;5.22;;;0.90;;
66542;SDS011;53395;37.360;-122.046;2023-06-10T09:24:49;2.20;;;0.70;;
66542;SDS011;53395;37.360;-122.046;2023-06-10T09:27:52;3.10;;;1.00;;
66542;SDS011;53395;37.360;-122.046;2023-06-10T09:30:40;3.92;;;0.70;;
66542;SDS011;53395;37.360;-122.046;2023-06-10T09:33:25;1.73;;;0.70;;
66542;SDS011;53395;37.360;-122.046;2023-06-10T09:36:10;3.25;;;0.70;;
66542;SDS011;53395;37.360;-122.046;2023-06-10T09:38:56;2.65;;;0.52;;
66542;SDS011;53395;37.360;-122.046;2023-06-10T09:41:40;1.77;;;0.70;;
66542;SDS011;53395;37.360;-122.046;2023-06-10T09:44:25;2.42;;;0.60;;
66542;SDS011;53395;37.360;-122.046;2023-06-10T09:47:09;2.80;;;0.80;;
66542;SDS011;53395;37.360;-122.046;2023-06-10T09:50:03;2.10;;;0.80;;
66542;SDS011;53395;37.360;-122.046;2023-06-10T09:52:48;2.10;;;0.70;;
66542;SDS011;53395;37.360;-122.046;2023-06-10T09:55:33;2.10;;;0.68;;
66542;SDS011;53395;37.360;-122.046;2023-06-10T09:58:17;2.25;;;0.68;;
66542;SDS011;53395;37.360;-122.046;2023-06-10T10:01:11;1.60;;;0.70;;
66542;SDS011;53395;37.360;-122.046;2023-06-10T10:03:56;2.33;;;0.60;;
66542;SDS011;53395;37.360;-122.046;2023-06-10T10:06:41;1.85;;;0.82;;
66542;SDS011;53395;37.360;-122.046;2023-06-10T10:09:25;5.55;;;0.73;;
66542;SDS011;53395;37.360;-122.046;2023-06-10T10:12:11;1.48;;;0.52;;
66542;SDS011;53395;37.360;-122.046;2023-06-10T10:14:55;3.05;;;0.73;;
66542;SDS011;53395;37.360;-122.046;2023-06-10T10:17:42;1.67;;;0.65;;
66542;SDS011;53395;37.360;-122.046;2023-06-10T10:20:29;3.58;;;0.60;;
66542;SDS011;53395;37.360;-122.046;2023-06-10T10:23:17;2.40;;;0.60;;
66542;SDS011;53395;37.360;-122.046;2023-06-10T10:26:04;1.40;;;0.57;;
66542;SDS011;53395;37.360;-122.046;2023-06-10T10:28:53;2.92;;;0.80;;
66542;SDS011;53395;37.360;-122.046;2023-06-10T10:31:42;1.88;;;0.70;;
66542;SDS011;53395;37.360;-122.046;2023-06-10T10:34:37;2.25;;;0.73;;
66542;SDS011;53395;37.360;-122.046;2023-06-10T10:40:10;1.58;;;0.70;;
66542;SDS011;53395;37.360;-122.046;2023-06-10T10:42:55;2.55;;;0.88;;
66542;SDS011;53395;37.360;-122.046;2023-06-10T10:45:40;2.75;;;0.70;;
66542;SDS011;53395;37.360;-122.046;2023-06-10T10:48:25;2.25;;;0.75;;
66542;SDS011;53395;37.360;-122.046;2023-06-10T10:51:13;2.10;;;0.60;;
66542;SDS011;53395;37.360;-122.046;2023-06-10T10:54:15;1.80;;;0.60;;
66542;SDS011;53395;37.360;-122.046;2023-06-10T10:59:56;2.08;;;0.55;;
66542;SDS011;53395;37.360;-122.046;2023-06-10T11:02:44;2.58;;;0.57;;
66542;SDS011;53395;37.360;-122.046;2023-06-10T11:05:36;1.40;;;0.40;;
66542;SDS011;53395;37.360;-122.046;2023-06-10T11:11:20;1.23;;;0.43;;
66542;SDS011;53395;37.360;-122.046;2023-06-10T11:14:06;1.40;;;0.55;;
66542;SDS011;53395;37.360;-122.046;2023-06-10T11:16:52;2.85;;;0.50;;
66542;SDS011;53395;37.360;-122.046;2023-06-10T11:19:39;0.82;;;0.45;;
66542;SDS011;53395;37.360;-122.046;2023-06-10T11:22:30;0.77;;;0.40;;
66542;SDS011;53395;37.360;-122.046;2023-06-10T11:25:15;2.05;;;0.60;;
66542;SDS011;53395;37.360;-122.046;2023-06-10T11:27:59;2.10;;;0.57;;
66542;SDS011;53395;37.360;-122.046;2023-06-10T11:30:44;1.45;;;0.70;;
66542;SDS011;53395;37.360;-122.046;2023-06-10T11:33:29;3.28;;;0.60;;
66542;SDS011;53395;37.360;-122.046;2023-06-10T11:36:14;3.75;;;0.80;;
66542;SDS011;53395;37.360;-122.046;2023-06-10T11:39:00;1.42;;;0.60;;
66542;SDS011;53395;37.360;-122.046;2023-06-10T11:41:45;1.98;;;0.70;;
66542;SDS011;53395;37.360;-122.046;2023-06-10T11:44:29;3.20;;;0.60;;
66542;SDS011;53395;37.360;-122.046;2023-06-10T11:47:13;2.75;;;0.65;;
66542;SDS011;53395;37.360;-122.046;2023-06-10T11:49:58;1.65;;;0.50;;
66542;SDS011;53395;37.360;-122.046;2023-06-10T11:52:42;1.63;;;0.73;;
66542;SDS011;53395;37.360;-122.046;2023-06-10T11:55:42;1.60;;;0.60;;
66542;SDS011;53395;37.360;-122.046;2023-06-10T11:58:27;2.55;;;0.70;;
66542;SDS011;53395;37.360;-122.046;2023-06-10T12:01:12;4.25;;;0.82;;
66542;SDS011;53395;37.360;-122.046;2023-06-10T12:04:04;1.98;;;0.60;;
66542;SDS011;53395;37.360;-122.046;2023-06-10T12:06:50;2.33;;;0.82;;
66542;SDS011;53395;37.360;-122.046;2023-06-10T12:09:35;2.25;;;0.80;;
66542;SDS011;53395;37.360;-122.046;2023-06-10T12:12:20;1.30;;;0.68;;
66542;SDS011;53395;37.360;-122.046;2023-06-10T12:15:04;1.42;;;0.60;;
66542;SDS011;53395;37.360;-122.046;2023-06-10T12:17:49;2.58;;;0.70;;
66542;SDS011;53395;37.360;-122.046;2023-06-10T12:20:35;3.67;;;0.90;;
66542;SDS011;53395;37.360;-122.046;2023-06-10T12:23:20;4.20;;;0.63;;
66542;SDS011;53395;37.360;-122.046;2023-06-10T12:26:05;1.38;;;0.60;;
66542;SDS011;53395;37.360;-122.046;2023-06-10T12:28:50;4.50;;;0.68;;
66542;SDS011;53395;37.360;-122.046;2023-06-10T12:31:51;1.75;;;0.55;;
66542;SDS011;53395;37.360;-122.046;2023-06-10T12:34:37;2.08;;;0.65;;
66542;SDS011;53395;37.360;-122.046;2023-06-10T12:37:22;1.73;;;0.50;;
66542;SDS011;53395;37.360;-122.046;2023-06-10T12:40:07;3.40;;;0.60;;
66542;SDS011;53395;37.360;-122.046;2023-06-10T12:42:55;2.63;;;0.60;;
66542;SDS011;53395;37.360;-122.046;2023-06-10T12:45:42;4.25;;;0.88;;
66542;SDS011;53395;37.360;-122.046;2023-06-10T12:48:29;2.90;;;0.70;;
66542;SDS011;53395;37.360;-122.046;2023-06-10T12:51:13;2.15;;;0.75;;
66542;SDS011;53395;37.360;-122.046;2023-06-10T12:53:58;2.25;;;0.90;;
66542;SDS011;53395;37.360;-122.046;2023-06-10T12:56:43;4.78;;;1.10;;
66542;SDS011;53395;37.360;-122.046;2023-06-10T12:59:27;3.28;;;1.02;;
66542;SDS011;53395;37.360;-122.046;2023-06-10T13:02:12;4.93;;;1.20;;
66542;SDS011;53395;37.360;-122.046;2023-06-10T13:04:57;3.70;;;1.00;;
66542;SDS011;53395;37.360;-122.046;2023-06-10T13:07:41;2.75;;;0.60;;
66542;SDS011;53395;37.360;-122.046;2023-06-10T13:10:26;2.67;;;0.70;;
66542;SDS011;53395;37.360;-122.046;2023-06-10T13:13:11;5.07;;;1.00;;
66542;SDS011;53395;37.360;-122.046;2023-06-10T13:15:58;2.08;;;0.80;;
66542;SDS011;53395;37.360;-122.046;2023-06-10T13:18:42;2.83;;;0.80;;
66542;SDS011;53395;37.360;-122.046;2023-06-10T13:21:27;3.83;;;1.15;;
66542;SDS011;53395;37.360;-122.046;2023-06-10T13:24:11;2.13;;;0.90;;
66542;SDS011;53395;37.360;-122.046;2023-06-10T13:26:56;2.00;;;0.98;;
66542;SDS011;53395;37.360;-122.046;2023-06-10T13:29:41;2.97;;;0.80;;
66542;SDS011;53395;37.360;-122.046;2023-06-10T13:32:25;4.40;;;1.10;;
66542;SDS011;53395;37.360;-122.046;2023-06-10T13:35:10;2.38;;;1.08;;
66542;SDS011;53395;37.360;-122.046;2023-06-10T13:37:54;2.30;;;0.75;;
66542;SDS011;53395;37.360;-122.046;2023-06-10T13:40:39;2.15;;;0.95;;
66542;SDS011;53395;37.360;-122.046;2023-06-10T13:43:23;2.95;;;0.90;;
66542;SDS011;53395;37.360;-122.046;2023-06-10T13:46:08;4.32;;;0.98;;
66542;SDS011;53395;37.360;-122.046;2023-06-10T13:48:53;2.95;;;1.00;;
66542;SDS011;53395;37.360;-122.046;2023-06-10T13:51:37;3.20;;;1.00;;
66542;SDS011;53395;37.360;-122.046;2023-06-10T13:54:22;2.50;;;0.82;;
66542;SDS011;53395;37.360;-122.046;2023-06-10T13:57:06;2.55;;;0.82;;
66542;SDS011;53395;37.360;-122.046;2023-06-10T13:59:54;3.30;;;0.82;;
66542;SDS011;53395;37.360;-122.046;2023-06-10T14:02:40;4.00;;;1.00;;
66542;SDS011;53395;37.360;-122.046;2023-06-10T14:05:24;3.55;;;0.70;;
66542;SDS011;53395;37.360;-122.046;2023-06-10T14:08:09;1.65;;;0.80;;
66542;SDS011;53395;37.360;-122.046;2023-06-10T14:10:53;2.67;;;0.70;;
66542;SDS011;53395;37.360;-122.046;2023-06-10T14:13:38;2.35;;;0.88;;
66542;SDS011;53395;37.360;-122.046;2023-06-10T14:16:23;2.55;;;0.85;;
66542;SDS011;53395;37.360;-122.046;2023-06-10T14:19:08;4.00;;;0.80;;
66542;SDS011;53395;37.360;-122.046;2023-06-10T14:21:52;1.40;;;0.60;;
66542;SDS011;53395;37.360;-122.046;2023-06-10T14:24:39;2.03;;;0.60;;
66542;SDS011;53395;37.360;-122.046;2023-06-10T14:27:23;2.33;;;0.63;;
66542;SDS011;53395;37.360;-122.046;2023-06-10T14:30:08;3.05;;;0.80;;
66542;SDS011;53395;37.360;-122.046;2023-06-10T14:32:52;1.90;;;0.80;;
66542;SDS011;53395;37.360;-122.046;2023-06-10T14:35:37;2.78;;;0.70;;
66542;SDS011;53395;37.360;-122.046;2023-06-10T14:38:21;2.90;;;0.95;;
66542;SDS011;53395;37.360;-122.046;2023-06-10T14:41:06;2.40;;;0.77;;
66542;SDS011;53395;37.360;-122.046;2023-06-10T14:43:50;3.10;;;0.70;;
66542;SDS011;53395;37.360;-122.046;2023-06-10T14:46:35;2.00;;;0.70;;
66542;SDS011;53395;37.360;-122.046;2023-06-10T14:49:19;2.30;;;0.90;;
66542;SDS011;53395;37.360;-122.046;2023-06-10T14:52:03;3.00;;;0.82;;
66542;SDS011;53395;37.360;-122.046;2023-06-10T14:54:48;2.20;;;0.80;;
66542;SDS011;53395;37.360;-122.046;2023-06-10T14:57:32;3.92;;;0.80;;
66542;SDS011;53395;37.360;-122.046;2023-06-10T15:00:17;2.13;;;0.80;;
66542;SDS011;53395;37.360;-122.046;2023-06-10T15:03:06;2.03;;;0.88;;
66542;SDS011;53395;37.360;-122.046;2023-06-10T15:05:50;5.97;;;1.13;;
66542;SDS011;53395;37.360;-122.046;2023-06-10T15:08:34;4.32;;;1.20;;
66542;SDS011;53395;37.360;-122.046;2023-06-10T15:11:20;4.05;;;1.05;;
66542;SDS011;53395;37.360;-122.046;2023-06-10T15:14:04;4.38;;;1.30;;
66542;SDS011;53395;37.360;-122.046;2023-06-10T15:16:49;3.90;;;1.10;;
66542;SDS011;53395;37.360;-122.046;2023-06-10T15:19:33;3.13;;;1.15;;
66542;SDS011;53395;37.360;-122.046;2023-06-10T15:22:18;3.08;;;1.02;;
66542;SDS011;53395;37.360;-122.046;2023-06-10T15:25:03;4.53;;;1.20;;
66542;SDS011;53395;37.360;-122.046;2023-06-10T15:27:47;4.25;;;1.30;;
66542;SDS011;53395;37.360;-122.046;2023-06-10T15:30:32;4.55;;;2.20;;
66542;SDS011;53395;37.360;-122.046;2023-06-10T15:33:16;6.22;;;1.60;;
66542;SDS011;53395;37.360;-122.046;2023-06-10T15:36:01;7.32;;;1.50;;
66542;SDS011;53395;37.360;-122.046;2023-06-10T15:38:45;3.60;;;1.40;;
66542;SDS011;53395;37.360;-122.046;2023-06-10T15:41:29;4.35;;;1.20;;
66542;SDS011;53395;37.360;-122.046;2023-06-10T15:44:14;5.57;;;1.20;;
66542;SDS011;53395;37.360;-122.046;2023-06-10T15:46:58;5.22;;;1.17;;
66542;SDS011;53395;37.360;-122.046;2023-06-10T15:49:43;3.28;;;0.98;;
66542;SDS011;53395;37.360;-122.046;2023-06-10T15:52:27;2.35;;;0.85;;
66542;SDS011;53395;37.360;-122.046;2023-06-10T15:55:12;3.28;;;1.10;;
66542;SDS011;53395;37.360;-122.046;2023-06-10T15:57:56;4.88;;;1.10;;
66542;SDS011;53395;37.360;-122.046;2023-06-10T16:00:43;2.58;;;0.90;;
66542;SDS011;53395;37.360;-122.046;2023-06-10T16:03:28;3.65;;;1.10;;
66542;SDS011;53395;37.360;-122.046;2023-06-10T16:06:12;4.18;;;1.30;;